Time;durP1;ratioP1;P1;durP2;ratioP2;P2;SDS_P1;SDS_P2;PMS_P1;PMS_P2;Temp;Humidity;BMP_temperature;BMP_pressure;BME280_temperature;BME280_humidity;BME280_pressure;Samples;Min_cycle;Max_cycle;Signal;HPM_P1;HPM_P2
2023/10/23 00:00:57;;;;;;;1999.90;999.90;;;11.80;99.90;;;;;;5110066;28;20246;-67
2023/10/23 00:03:23;;;;;;;1999.90;999.90;;;11.80;99.90;;;;;;5091862;28;20190;-68
2023/10/23 00:05:48;;;;;;;1999.90;999.90;;;11.80;99.90;;;;;;5091866;28;20173;-67
2023/10/23 00:08:14;;;;;;;1999.90;999.90;;;11.70;99.90;;;;;;5091782;28;20168;-67
2023/10/23 00:10:42;;;;;;;1999.90;999.90;;;11.70;99.90;;;;;;5091435;28;20214;-68
2023/10/23 00:13:08;;;;;;;1999.90;999.90;;;11.70;99.90;;;;;;5091672;28;20257;-68
2023/10/23 00:15:34;;;;;;;1999.90;999.90;;;11.60;99.90;;;;;;5091846;28;20858;-67
2023/10/23 00:18:00;;;;;;;1999.90;999.90;;;11.60;99.90;;;;;;5091733;28;20404;-68
2023/10/23 00:20:26;;;;;;;1999.90;999.90;;;11.60;99.90;;;;;;5091546;28;20817;-67
2023/10/23 00:22:51;;;;;;;1999.90;999.90;;;11.60;99.90;;;;;;5091559;28;20190;-68
2023/10/23 00:25:17;;;;;;;1999.90;999.90;;;11.60;99.90;;;;;;5091567;28;20178;-68
2023/10/23 00:27:42;;;;;;;1999.90;999.90;;;11.60;99.90;;;;;;5091558;28;20177;-67
2023/10/23 00:30:08;;;;;;;1999.90;999.90;;;11.70;99.90;;;;;;5091371;28;20688;-68
2023/10/23 00:32:34;;;;;;;1999.90;999.90;;;11.60;99.90;;;;;;5091033;28;20209;-68
2023/10/23 00:34:59;;;;;;;1999.90;999.90;;;11.60;99.90;;;;;;5091472;28;20170;-67
2023/10/23 00:37:25;;;;;;;1999.90;999.90;;;11.60;99.90;;;;;;5091408;28;20182;-68
2023/10/23 00:39:51;;;;;;;1999.90;999.90;;;11.60;99.90;;;;;;5091289;28;20169;-67
2023/10/23 00:42:16;;;;;;;1999.90;999.90;;;11.60;99.90;;;;;;5091363;28;20224;-68
2023/10/23 00:44:42;;;;;;;1999.90;999.90;;;11.60;99.90;;;;;;5091661;28;20248;-67
2023/10/23 00:47:09;;;;;;;1999.90;999.90;;;11.50;99.90;;;;;;5095604;28;20544;-68
2023/10/23 00:49:35;;;;;;;1999.90;999.90;;;11.50;99.90;;;;;;5095371;28;20570;-67
2023/10/23 00:52:01;;;;;;;1999.90;999.90;;;11.50;99.90;;;;;;5095096;28;20478;-67
2023/10/23 00:54:27;;;;;;;1999.90;999.90;;;11.40;99.90;;;;;;5095638;28;20811;-68
2023/10/23 00:56:53;;;;;;;1999.90;999.90;;;11.40;99.90;;;;;;5095426;28;20466;-68
2023/10/23 00:59:20;;;;;;;1999.90;999.90;;;11.40;99.90;;;;;;5095263;28;20162;-66
2023/10/23 01:01:46;;;;;;;1999.90;999.90;;;11.80;99.90;;;;;;5095183;28;20420;-67
2023/10/23 01:04:12;;;;;;;1999.90;999.90;;;11.40;99.90;;;;;;5095240;28;20787;-68
2023/10/23 01:06:38;;;;;;;1999.90;999.90;;;11.30;99.90;;;;;;5095358;28;20404;-67
2023/10/23 01:09:05;;;;;;;1999.90;999.90;;;11.30;99.90;;;;;;5095242;28;20477;-67
2023/10/23 01:11:30;;;;;;;1999.90;999.90;;;11.50;99.90;;;;;;5094553;28;20273;-67
2023/10/23 01:13:56;;;;;;;1999.90;999.90;;;11.30;99.90;;;;;;5095215;28;20962;-68
2023/10/23 01:16:22;;;;;;;1999.90;999.90;;;11.20;99.90;;;;;;5095160;28;20231;-68
2023/10/23 01:18:47;;;;;;;1999.90;999.90;;;11.20;99.90;;;;;;5094968;28;20884;-67
2023/10/23 01:21:13;;;;;;;1999.90;999.90;;;11.10;99.90;;;;;;5094788;28;20201;-68
2023/10/23 01:23:42;;;;;;;1999.90;999.90;;;11.00;99.90;;;;;;5094839;28;20223;-67
2023/10/23 01:26:07;;;;;;;1999.90;999.90;;;11.00;99.90;;;;;;5095070;28;20629;-68
2023/10/23 01:28:33;;;;;;;1999.90;999.90;;;10.90;99.90;;;;;;5094896;28;20502;-68
2023/10/23 01:30:58;;;;;;;1999.90;999.90;;;10.90;99.90;;;;;;5094666;28;20181;-68
2023/10/23 01:33:24;;;;;;;1999.90;999.90;;;10.70;99.90;;;;;;5094266;28;20278;-67
2023/10/23 01:35:50;;;;;;;1999.90;999.90;;;10.70;99.90;;;;;;5094936;28;20212;-67
2023/10/23 01:38:16;;;;;;;1999.90;999.90;;;10.70;99.90;;;;;;5094592;28;20957;-67
2023/10/23 01:40:41;;;;;;;1999.90;999.90;;;10.60;99.90;;;;;;5094492;28;20205;-68
2023/10/23 01:43:07;;;;;;;1999.90;999.90;;;10.50;99.90;;;;;;5094463;28;20190;-68
2023/10/23 01:45:33;;;;;;;1999.90;999.90;;;10.50;99.90;;;;;;5094578;28;20180;-68
2023/10/23 01:47:58;;;;;;;1999.90;999.90;;;10.50;99.90;;;;;;5094450;28;20743;-68
2023/10/23 01:50:24;;;;;;;1999.90;999.90;;;10.50;99.90;;;;;;5094279;28;20175;-67
2023/10/23 01:52:50;;;;;;;1999.90;999.90;;;10.40;99.90;;;;;;5093972;28;20205;-68
2023/10/23 01:55:16;;;;;;;1999.90;999.90;;;10.40;99.90;;;;;;5094351;28;20194;-67
2023/10/23 01:57:42;;;;;;;1999.90;999.90;;;10.30;99.90;;;;;;5092981;28;20495;-67
2023/10/23 02:00:10;;;;;;;1999.90;999.90;;;10.30;99.90;;;;;;5094021;28;20627;-67
2023/10/23 02:02:36;;;;;;;1999.90;999.90;;;10.20;99.90;;;;;;5093871;28;20205;-68
2023/10/23 02:05:02;;;;;;;1999.90;999.90;;;10.10;99.90;;;;;;5094185;28;20416;-67
2023/10/23 02:07:28;;;;;;;1999.90;999.90;;;10.10;99.90;;;;;;5094162;28;20494;-68
2023/10/23 02:09:56;;;;;;;1999.90;999.90;;;10.20;99.90;;;;;;5093929;28;20519;-68
2023/10/23 02:12:22;;;;;;;1999.90;999.90;;;10.10;99.90;;;;;;5093671;28;20213;-68
2023/10/23 02:14:50;;;;;;;1999.90;999.90;;;10.10;99.90;;;;;;5093953;28;20404;-67
2023/10/23 02:17:17;;;;;;;1999.90;999.90;;;10.10;99.90;;;;;;5093800;28;20426;-67
2023/10/23 02:19:42;;;;;;;1999.90;999.90;;;10.00;99.90;;;;;;5093639;28;20484;-67
2023/10/23 02:22:08;;;;;;;1999.90;999.90;;;10.00;99.90;;;;;;5093720;28;20511;-68
2023/10/23 02:24:33;;;;;;;1999.90;999.90;;;10.00;99.90;;;;;;5093826;28;20189;-67
2023/10/23 02:26:59;;;;;;;1999.90;999.90;;;9.90;99.90;;;;;;5093718;28;20179;-67
2023/10/23 02:29:25;;;;;;;1999.90;999.90;;;9.90;99.90;;;;;;5093443;28;20647;-67
2023/10/23 02:31:50;;;;;;;1999.90;999.90;;;9.90;99.90;;;;;;5093114;28;20245;-67
2023/10/23 02:34:16;;;;;;;1999.90;999.90;;;10.00;99.90;;;;;;5093790;28;20278;-68
2023/10/23 02:36:42;;;;;;;1999.90;999.90;;;10.00;99.90;;;;;;5093489;28;20169;-68
2023/10/23 02:39:07;;;;;;;1999.90;999.90;;;10.00;99.90;;;;;;5093577;28;20225;-67
2023/10/23 02:41:33;;;;;;;1999.90;999.90;;;9.90;99.90;;;;;;5093199;28;20487;-67
2023/10/23 02:43:59;;;;;;;1999.90;999.90;;;10.20;99.90;;;;;;5093456;28;21093;-68
2023/10/23 02:46:24;;;;;;;1999.90;999.90;;;10.10;99.90;;;;;;5093282;28;20177;-67
2023/10/23 02:48:50;;;;;;;1999.90;999.90;;;10.00;99.90;;;;;;5093303;28;20173;-68
2023/10/23 02:51:16;;;;;;;1999.90;999.90;;;9.90;99.90;;;;;;5092927;28;20415;-67
2023/10/23 02:53:42;;;;;;;1999.90;999.90;;;9.90;99.90;;;;;;5092680;28;20288;-68
2023/10/23 02:56:12;;;;;;;1999.90;999.90;;;9.90;99.90;;;;;;5093170;28;20493;-67
2023/10/23 02:58:38;;;;;;;1999.90;999.90;;;9.80;99.90;;;;;;5092951;28;20942;-67
2023/10/23 03:01:13;;;;;;;1999.90;999.90;;;9.80;99.90;;;;;;5092863;28;20406;-67
2023/10/23 03:03:40;;;;;;;1999.90;999.90;;;9.70;99.90;;;;;;5093054;28;20698;-67
2023/10/23 03:06:05;;;;;;;1999.90;999.90;;;9.70;99.90;;;;;;5092872;28;20410;-67
2023/10/23 03:08:31;;;;;;;1999.90;999.90;;;9.70;99.90;;;;;;5092651;28;20411;-68
2023/10/23 03:10:56;;;;;;;1999.90;999.90;;;9.70;99.90;;;;;;5092608;28;20263;-67
2023/10/23 03:13:23;;;;;;;1999.90;999.90;;;9.60;99.90;;;;;;5092452;28;20624;-67
2023/10/23 03:15:48;;;;;;;1999.90;999.90;;;9.70;99.90;;;;;;5092975;28;20182;-68
2023/10/23 03:18:14;;;;;;;1999.90;999.90;;;9.60;99.90;;;;;;5092692;28;20894;-67
2023/10/23 03:20:40;;;;;;;1999.90;999.90;;;9.50;99.90;;;;;;5092585;28;20577;-67
2023/10/23 03:23:06;;;;;;;1999.90;999.90;;;9.40;99.90;;;;;;5092492;28;20287;-67
2023/10/23 03:25:31;;;;;;;1999.90;999.90;;;9.50;99.90;;;;;;5100554;28;20432;-67
2023/10/23 03:27:57;;;;;;;1999.90;999.90;;;9.50;99.90;;;;;;5104037;28;20178;-68
2023/10/23 03:30:23;;;;;;;1999.90;999.90;;;9.40;99.90;;;;;;5104011;28;20180;-68
2023/10/23 03:32:49;;;;;;;1999.90;999.90;;;9.30;99.90;;;;;;5103078;28;20250;-69
2023/10/23 03:35:15;;;;;;;1999.90;999.90;;;9.40;99.90;;;;;;5103572;28;20774;-68
2023/10/23 03:37:40;;;;;;;1999.90;999.90;;;9.40;99.90;;;;;;5104240;28;20161;-68
2023/10/23 03:40:06;;;;;;;1999.90;999.90;;;9.30;99.90;;;;;;5103325;28;20173;-68
2023/10/23 03:42:32;;;;;;;1999.90;999.90;;;9.30;99.90;;;;;;5102643;28;20229;-68
2023/10/23 03:44:57;;;;;;;1999.90;999.90;;;9.30;99.90;;;;;;5102972;28;20410;-69
2023/10/23 03:47:23;;;;;;;1999.90;999.90;;;9.30;99.90;;;;;;5102979;28;20237;-68
2023/10/23 03:49:48;;;;;;;1999.90;999.90;;;9.20;99.90;;;;;;5103756;28;20184;-67
2023/10/23 03:52:14;;;;;;;1999.90;999.90;;;9.20;99.90;;;;;;5103236;28;20209;-66
2023/10/23 03:54:40;;;;;;;1999.90;999.90;;;9.20;99.90;;;;;;5103648;28;20168;-69
2023/10/23 03:57:05;;;;;;;1999.90;999.90;;;9.00;99.90;;;;;;5102940;28;20171;-68
2023/10/23 03:59:31;;;;;;;1999.90;999.90;;;9.10;99.90;;;;;;5103520;28;20246;-68
2023/10/23 04:01:56;;;;;;;1999.90;999.90;;;9.10;99.90;;;;;;5103325;28;20271;-67
2023/10/23 04:04:22;;;;;;;1999.90;999.90;;;9.10;99.90;;;;;;5101979;28;20175;-69
2023/10/23 04:06:47;;;;;;;1999.90;999.90;;;9.00;99.90;;;;;;5103108;28;20255;-67
2023/10/23 04:09:13;;;;;;;1999.90;999.90;;;9.10;99.90;;;;;;5098156;28;20168;-68
2023/10/23 04:11:39;;;;;;;1999.90;999.90;;;9.10;99.90;;;;;;5091335;28;20207;-67
2023/10/23 04:14:04;;;;;;;1999.90;999.90;;;9.10;99.90;;;;;;5091649;28;20651;-67
2023/10/23 04:16:30;;;;;;;1999.90;999.90;;;9.10;99.90;;;;;;5091765;28;20553;-67
2023/10/23 04:18:55;;;;;;;1999.90;999.90;;;9.00;99.90;;;;;;5091571;28;20262;-68
2023/10/23 04:21:21;;;;;;;1999.90;999.90;;;9.10;99.90;;;;;;5090894;28;20171;-68
2023/10/23 04:23:47;;;;;;;1999.90;999.90;;;9.10;99.90;;;;;;5091579;28;20196;-67
2023/10/23 04:26:12;;;;;;;1999.90;999.90;;;9.10;99.90;;;;;;5091558;28;20177;-68
2023/10/23 04:28:38;;;;;;;1999.90;999.90;;;9.20;99.90;;;;;;5091504;28;20181;-68
2023/10/23 04:31:04;;;;;;;1999.90;999.90;;;9.20;99.90;;;;;;5091479;28;20175;-67
2023/10/23 04:33:29;;;;;;;1999.90;999.90;;;9.20;99.90;;;;;;5091201;28;20286;-68
2023/10/23 04:35:56;;;;;;;1999.90;999.90;;;9.20;99.90;;;;;;5091562;28;20263;-67
2023/10/23 04:38:23;;;;;;;1999.90;999.90;;;9.20;99.90;;;;;;5091569;28;20664;-67
2023/10/23 04:40:55;;;;;;;1999.90;999.90;;;9.10;99.90;;;;;;5091160;28;20496;-67
2023/10/23 04:43:21;;;;;;;1999.90;999.90;;;9.20;99.90;;;;;;5091627;28;20437;-68
2023/10/23 04:45:48;;;;;;;1999.90;999.90;;;9.10;99.90;;;;;;5091387;28;20484;-67
2023/10/23 04:48:14;;;;;;;1999.90;999.90;;;9.10;99.90;;;;;;5091307;28;20919;-68
2023/10/23 04:50:39;;;;;;;1999.90;999.90;;;9.10;99.90;;;;;;5091279;28;20412;-67
2023/10/23 04:53:08;;;;;;;1999.90;999.90;;;9.10;99.90;;;;;;5091121;28;20232;-67
2023/10/23 04:55:35;;;;;;;1999.90;999.90;;;9.10;99.90;;;;;;5091264;28;20176;-67
2023/10/23 04:58:02;;;;;;;1999.90;999.90;;;9.10;99.90;;;;;;5091335;28;20441;-67
2023/10/23 05:00:28;;;;;;;1999.90;999.90;;;9.10;99.90;;;;;;5091123;28;20398;-67
2023/10/23 05:02:54;;;;;;;1999.90;999.90;;;9.10;99.90;;;;;;5091187;28;20427;-67
2023/10/23 05:05:19;;;;;;;1999.90;999.90;;;9.00;99.90;;;;;;5091337;28;20422;-68
2023/10/23 05:07:45;;;;;;;1999.90;999.90;;;9.10;99.90;;;;;;5091027;28;20638;-67
2023/10/23 05:10:11;;;;;;;1999.90;999.90;;;9.00;99.90;;;;;;5090951;28;20196;-67
2023/10/23 05:12:37;;;;;;;1999.90;999.90;;;9.00;99.90;;;;;;5091139;28;20246;-67
2023/10/23 05:15:03;;;;;;;1999.90;999.90;;;9.00;99.90;;;;;;5091022;28;20836;-67
2023/10/23 05:17:28;;;;;;;1999.90;999.90;;;8.90;99.90;;;;;;5091005;28;20509;-68
2023/10/23 05:19:54;;;;;;;1999.90;999.90;;;8.90;99.90;;;;;;5090913;28;20419;-67
2023/10/23 05:22:20;;;;;;;1999.90;999.90;;;8.80;99.90;;;;;;5090992;28;20237;-67
2023/10/23 05:24:46;;;;;;;1999.90;999.90;;;8.80;99.90;;;;;;5091047;28;20179;-67
2023/10/23 05:27:17;;;;;;;1999.90;999.90;;;8.70;99.90;;;;;;5091119;28;20178;-67
2023/10/23 05:29:42;;;;;;;1999.90;999.90;;;8.70;99.90;;;;;;5090985;28;20410;-67
2023/10/23 05:32:08;;;;;;;1999.90;999.90;;;8.90;99.90;;;;;;5093224;28;20449;-67
2023/10/23 05:34:34;;;;;;;1999.90;999.90;;;8.60;99.90;;;;;;5094669;28;20169;-68
2023/10/23 05:37:00;;;;;;;1999.90;999.90;;;8.60;99.90;;;;;;5094636;28;20719;-67
2023/10/23 05:39:26;;;;;;;1999.90;999.90;;;8.50;99.90;;;;;;5094450;28;20729;-68
2023/10/23 05:41:51;;;;;;;1999.90;999.90;;;8.50;99.90;;;;;;5094617;28;20202;-67
2023/10/23 05:44:17;;;;;;;1999.90;999.90;;;8.50;99.90;;;;;;5094769;28;20489;-68
2023/10/23 05:46:42;;;;;;;1999.90;999.90;;;8.50;99.90;;;;;;5094444;28;20167;-67
2023/10/23 05:49:08;;;;;;;1999.90;999.90;;;8.50;99.90;;;;;;5094282;28;20172;-68
2023/10/23 05:51:34;;;;;;;1999.90;999.90;;;8.60;99.90;;;;;;5094121;28;20165;-67
2023/10/23 05:53:59;;;;;;;1999.90;999.90;;;8.40;99.90;;;;;;5094301;28;20230;-67
2023/10/23 05:56:25;;;;;;;1999.90;999.90;;;8.50;99.90;;;;;;5094361;28;20276;-68
2023/10/23 05:58:50;;;;;;;1999.90;999.90;;;8.40;99.90;;;;;;5094317;28;20254;-67
2023/10/23 06:01:17;;;;;;;1999.90;999.90;;;8.40;99.90;;;;;;5094116;28;20602;-68
2023/10/23 06:03:43;;;;;;;1999.90;999.90;;;8.40;99.90;;;;;;5094140;28;20757;-67
2023/10/23 06:06:09;;;;;;;1999.90;999.90;;;8.30;99.90;;;;;;5093204;28;20409;-66
2023/10/23 06:08:35;;;;;;;1999.90;999.90;;;8.30;99.90;;;;;;5097016;28;20447;-66
2023/10/23 06:11:01;;;;;;;1999.90;999.90;;;8.30;99.90;;;;;;5102132;28;21126;-68
2023/10/23 06:13:27;;;;;;;1999.90;999.90;;;8.30;99.90;;;;;;5111876;28;20218;-68
2023/10/23 06:15:52;;;;;;;1999.90;999.90;;;8.20;99.90;;;;;;5114203;28;20488;-68
2023/10/23 06:18:18;;;;;;;1999.90;999.90;;;8.30;99.90;;;;;;5114182;28;20409;-67
2023/10/23 06:20:44;;;;;;;1999.90;999.90;;;8.30;99.90;;;;;;5114045;28;20255;-67
2023/10/23 06:23:10;;;;;;;1999.90;999.90;;;8.30;99.90;;;;;;5114076;28;20608;-67
2023/10/23 06:25:35;;;;;;;1999.90;999.90;;;8.30;99.90;;;;;;5114110;28;20408;-67
2023/10/23 06:28:02;;;;;;;1999.90;999.90;;;8.30;99.90;;;;;;5113934;28;20162;-67
2023/10/23 06:30:27;;;;;;;1999.90;999.90;;;8.30;99.90;;;;;;5113784;28;20175;-67
2023/10/23 06:32:53;;;;;;;1999.90;999.90;;;8.30;99.90;;;;;;5113814;28;20458;-67
2023/10/23 06:35:18;;;;;;;1999.90;999.90;;;8.30;99.90;;;;;;5113735;28;20166;-68
2023/10/23 06:37:44;;;;;;;1999.90;999.90;;;8.30;99.90;;;;;;5112756;28;20176;-68
2023/10/23 06:40:10;;;;;;;1999.90;999.90;;;8.40;99.90;;;;;;5101816;28;20168;-68
2023/10/23 06:42:36;;;;;;;1999.90;999.90;;;8.40;99.90;;;;;;5111910;28;20201;-67
2023/10/23 06:45:03;;;;;;;1999.90;999.90;;;8.40;99.90;;;;;;5113675;28;20414;-67
2023/10/23 06:47:29;;;;;;;1999.90;999.90;;;8.40;99.90;;;;;;5113723;28;20176;-68
2023/10/23 06:49:54;;;;;;;1999.90;999.90;;;8.50;99.90;;;;;;5113306;28;20805;-68
2023/10/23 06:52:20;;;;;;;1999.90;999.90;;;8.60;99.90;;;;;;5113527;28;20221;-67
2023/10/23 06:54:45;;;;;;;1999.90;999.90;;;8.60;99.90;;;;;;5113720;28;20534;-67
2023/10/23 06:57:11;;;;;;;1999.90;999.90;;;8.60;99.90;;;;;;5113618;28;20166;-68
2023/10/23 06:59:36;;;;;;;1999.90;999.90;;;8.70;99.90;;;;;;5113285;28;20173;-67
2023/10/23 07:02:02;;;;;;;1999.90;999.90;;;8.70;99.90;;;;;;5113354;28;20263;-67
2023/10/23 07:04:28;;;;;;;1999.90;999.90;;;8.80;99.90;;;;;;5113379;28;20166;-67
2023/10/23 07:06:55;;;;;;;1999.90;999.90;;;8.80;99.90;;;;;;5113347;28;20416;-67
2023/10/23 07:09:21;;;;;;;1999.90;999.90;;;8.90;99.90;;;;;;5113111;28;20396;-68
2023/10/23 07:11:48;;;;;;;1999.90;999.90;;;9.10;99.90;;;;;;5113128;28;20486;-68
2023/10/23 07:14:14;;;;;;;1999.90;999.90;;;9.00;99.90;;;;;;5113077;28;20404;-68
2023/10/23 07:16:40;;;;;;;1999.90;999.90;;;9.10;99.90;;;;;;5113301;28;20398;-67
2023/10/23 07:19:05;;;;;;;1999.90;999.90;;;9.20;99.90;;;;;;5113144;28;20396;-68
2023/10/23 07:21:31;;;;;;;1999.90;999.90;;;9.60;99.90;;;;;;5112772;28;20243;-67
2023/10/23 07:23:57;;;;;;;1999.90;999.90;;;9.30;99.90;;;;;;5113047;28;20180;-68
2023/10/23 07:26:22;;;;;;;1999.90;999.90;;;9.40;99.90;;;;;;5098308;28;20432;-67
2023/10/23 07:28:48;;;;;;;1999.90;999.90;;;9.40;99.90;;;;;;5102303;28;20179;-67
2023/10/23 07:31:14;;;;;;;1999.90;999.90;;;9.40;99.90;;;;;;5104138;28;20274;-68
2023/10/23 07:33:40;;;;;;;1999.90;999.90;;;9.50;99.90;;;;;;5094634;28;20214;-67
2023/10/23 07:36:06;;;;;;;1999.90;999.90;;;9.60;99.90;;;;;;5099070;28;20460;-70
2023/10/23 07:38:33;;;;;;;1999.90;999.90;;;9.70;99.90;;;;;;5097558;28;20177;-69
2023/10/23 07:40:58;;;;;;;1999.90;999.90;;;9.80;99.90;;;;;;5080064;28;20435;-68
2023/10/23 07:43:25;;;;;;;1999.90;999.90;;;9.80;99.90;;;;;;5086608;28;20978;-67
2023/10/23 07:45:51;;;;;;;1999.90;999.90;;;10.10;99.90;;;;;;5090852;28;20171;-70
2023/10/23 07:48:17;;;;;;;1999.90;999.90;;;10.10;99.90;;;;;;5081588;28;20760;-69
2023/10/23 07:50:43;;;;;;;1999.90;999.90;;;10.10;99.90;;;;;;5090861;28;20683;-70
2023/10/23 07:53:08;;;;;;;1999.90;999.90;;;10.20;99.90;;;;;;5086324;28;20516;-67
2023/10/23 07:55:35;;;;;;;1999.90;999.90;;;10.20;99.90;;;;;;5087793;28;20216;-67
2023/10/23 07:58:01;;;;;;;1999.90;999.90;;;10.30;99.90;;;;;;5086773;28;20184;-67
2023/10/23 08:00:28;;;;;;;1999.90;999.90;;;10.40;99.90;;;;;;5091194;28;20498;-67
2023/10/23 08:02:54;;;;;;;1999.90;999.90;;;10.50;99.90;;;;;;5091089;28;20189;-67
2023/10/23 08:05:20;;;;;;;1999.90;999.90;;;10.50;99.90;;;;;;5090850;28;20465;-67
2023/10/23 08:07:45;;;;;;;1999.90;999.90;;;10.60;99.90;;;;;;5091243;28;20415;-67
2023/10/23 08:10:11;;;;;;;1999.90;999.90;;;10.60;99.90;;;;;;5090393;28;20196;-68
2023/10/23 08:12:37;;;;;;;1999.90;999.90;;;10.60;99.90;;;;;;5091461;28;20201;-67
2023/10/23 08:15:03;;;;;;;1999.90;999.90;;;10.70;99.90;;;;;;5097542;28;20543;-67
2023/10/23 08:17:28;;;;;;;1999.90;999.90;;;10.80;99.90;;;;;;5091736;28;20412;-67
2023/10/23 08:19:54;;;;;;;1999.90;999.90;;;10.80;99.90;;;;;;5091183;28;20460;-66
2023/10/23 08:22:20;;;;;;;1999.90;999.90;;;10.90;99.90;;;;;;5091142;28;20745;-67
2023/10/23 08:24:46;;;;;;;1999.90;999.90;;;11.00;99.90;;;;;;5090916;28;20219;-66
2023/10/23 08:27:11;;;;;;;1999.90;999.90;;;11.10;99.90;;;;;;5091035;28;20428;-67
2023/10/23 08:29:37;;;;;;;1999.90;999.90;;;11.20;99.90;;;;;;5090555;28;20174;-68
2023/10/23 08:32:03;;;;;;;1999.90;999.90;;;11.30;99.90;;;;;;5090512;28;20287;-67
2023/10/23 08:34:28;;;;;;;1999.90;999.90;;;11.30;99.90;;;;;;5091174;28;20182;-67
2023/10/23 08:36:54;;;;;;;1999.90;999.90;;;11.50;99.90;;;;;;5090738;28;20189;-67
2023/10/23 08:39:20;;;;;;;1999.90;999.90;;;11.50;99.90;;;;;;5090905;28;20170;-68
2023/10/23 08:41:48;;;;;;;1999.90;999.90;;;11.80;99.90;;;;;;5090559;28;20514;-67
2023/10/23 08:44:14;;;;;;;1999.90;999.90;;;11.70;99.90;;;;;;5090929;28;20174;-67
2023/10/23 08:46:40;;;;;;;1999.90;999.90;;;11.70;99.90;;;;;;5090354;28;20412;-67
2023/10/23 08:49:06;;;;;;;1999.90;999.90;;;11.90;99.90;;;;;;5090916;28;20404;-67
2023/10/23 08:51:33;;;;;;;1999.90;999.90;;;11.90;99.90;;;;;;5090545;28;20929;-67
2023/10/23 08:54:07;;;;;;;1999.90;999.90;;;12.00;99.90;;;;;;5090609;28;20232;-67
2023/10/23 08:56:37;;;;;;;1999.90;999.90;;;12.00;99.90;;;;;;5090544;28;20408;-67
2023/10/23 08:59:03;;;;;;;1999.90;999.90;;;12.10;99.90;;;;;;5090592;28;20506;-67
2023/10/23 09:01:29;;;;;;;1999.90;999.90;;;12.10;99.90;;;;;;5090400;28;20779;-68
2023/10/23 09:03:55;;;;;;;1999.90;999.90;;;12.20;99.90;;;;;;5090778;28;21058;-67
2023/10/23 09:06:21;;;;;;;1999.90;999.90;;;12.10;99.90;;;;;;5091905;28;20414;-68
2023/10/23 09:08:46;;;;;;;1999.90;999.90;;;12.20;99.90;;;;;;5094393;28;20900;-67
2023/10/23 09:11:13;;;;;;;1999.90;999.90;;;12.30;99.90;;;;;;5094215;28;20204;-68
2023/10/23 09:13:40;;;;;;;1999.90;999.90;;;12.30;99.90;;;;;;5094105;28;20220;-68
2023/10/23 09:16:07;;;;;;;1999.90;999.90;;;12.50;99.90;;;;;;5094254;28;20404;-67
2023/10/23 09:18:33;;;;;;;1999.90;999.90;;;12.50;99.90;;;;;;5094513;28;20426;-68
2023/10/23 09:20:59;;;;;;;1999.90;999.90;;;12.50;99.90;;;;;;5094431;28;20408;-67
2023/10/23 09:23:25;;;;;;;1999.90;999.90;;;12.50;99.90;;;;;;5094286;28;20532;-67
2023/10/23 09:25:57;;;;;;;1999.90;999.90;;;12.50;99.90;;;;;;5094501;28;20166;-67
2023/10/23 09:28:23;;;;;;;1999.90;999.90;;;12.50;99.90;;;;;;5093860;28;20427;-67
2023/10/23 09:30:49;;;;;;;1999.90;999.90;;;12.60;99.90;;;;;;5093782;28;20410;-67
2023/10/23 09:33:15;;;;;;;1999.90;999.90;;;12.60;99.90;;;;;;5094280;28;20997;-68
2023/10/23 09:35:40;;;;;;;1999.90;999.90;;;12.70;99.90;;;;;;5094096;28;20205;-67
2023/10/23 09:38:14;;;;;;;1999.90;999.90;;;12.70;99.90;;;;;;5094025;28;20181;-67
2023/10/23 09:40:40;;;;;;;1999.90;999.90;;;12.70;99.90;;;;;;5093786;28;20572;-67
2023/10/23 09:43:06;;;;;;;1999.90;999.90;;;12.70;99.90;;;;;;5093730;28;20474;-67
2023/10/23 09:45:34;;;;;;;1999.90;999.90;;;12.60;99.90;;;;;;5093846;28;20175;-67
2023/10/23 09:48:02;;;;;;;1999.90;999.90;;;12.70;99.90;;;;;;5086953;28;20456;-67
2023/10/23 09:50:29;;;;;;;1999.90;999.90;;;12.80;99.90;;;;;;5084103;28;20433;-69
2023/10/23 09:52:57;;;;;;;1999.90;999.90;;;12.90;99.90;;;;;;5089470;28;20495;-68
2023/10/23 09:55:27;;;;;;;1999.90;999.90;;;13.10;99.90;;;;;;5092965;28;20909;-69
2023/10/23 09:57:54;;;;;;;1999.90;999.90;;;13.20;99.90;;;;;;5093085;28;20439;-68
2023/10/23 10:00:20;;;;;;;1999.90;999.90;;;13.30;99.90;;;;;;5089357;28;20498;-69
2023/10/23 10:02:53;;;;;;;1999.90;999.90;;;13.40;99.90;;;;;;5083294;28;20539;-68
2023/10/23 10:05:30;;;;;;;1999.90;999.90;;;13.50;99.90;;;;;;5094203;28;20806;-68
2023/10/23 10:08:03;;;;;;;1999.90;999.90;;;13.50;99.90;;;;;;5093404;28;20482;-67
2023/10/23 10:10:30;;;;;;;1999.90;999.90;;;13.50;99.90;;;;;;5092899;28;20478;-67
2023/10/23 10:12:56;;;;;;;1999.90;999.90;;;13.40;99.90;;;;;;5085481;28;20458;-68
2023/10/23 10:15:23;;;;;;;1999.90;999.90;;;13.30;99.90;;;;;;5093320;28;20413;-69
2023/10/23 10:17:49;;;;;;;1999.90;999.90;;;13.30;99.90;;;;;;5092159;28;20432;-69
2023/10/23 10:20:19;;;;;;;1999.90;999.90;;;13.30;99.90;;;;;;5093256;28;20404;-68
2023/10/23 10:22:49;;;;;;;1999.90;999.90;;;13.30;99.90;;;;;;5086700;28;21061;-68
2023/10/23 10:25:17;;;;;;;1999.90;999.90;;;13.30;99.90;;;;;;5077963;28;20423;-67
2023/10/23 10:27:42;;;;;;;1999.90;999.90;;;13.30;99.90;;;;;;5072472;28;20419;-67
2023/10/23 10:30:40;;;;;;;1999.90;999.90;;;13.30;99.90;;;;;;5077700;28;20473;-68
2023/10/23 10:33:08;;;;;;;1999.90;999.90;;;13.40;99.90;;;;;;5085915;28;20216;-68
2023/10/23 10:35:34;;;;;;;1999.90;999.90;;;13.50;99.90;;;;;;5093225;28;20409;-67
2023/10/23 10:38:00;;;;;;;1999.90;999.90;;;13.50;99.90;;;;;;5092874;28;20408;-67
2023/10/23 10:40:26;;;;;;;1999.90;999.90;;;13.60;99.90;;;;;;5092660;28;20981;-68
2023/10/23 10:42:54;;;;;;;1999.90;999.90;;;13.70;99.90;;;;;;5092828;28;20198;-67
2023/10/23 10:45:20;;;;;;;1999.90;999.90;;;13.80;99.90;;;;;;5092450;28;20268;-68
2023/10/23 10:47:47;;;;;;;1999.90;999.90;;;13.90;99.90;;;;;;5092834;28;20494;-67
2023/10/23 10:50:29;;;;;;;1999.90;999.90;;;14.00;99.90;;;;;;5092432;28;20184;-67
2023/10/23 10:53:00;;;;;;;1999.90;999.90;;;14.10;99.90;;;;;;5092216;28;20463;-67
2023/10/23 10:55:26;;;;;;;1999.90;999.90;;;14.20;99.90;;;;;;5092656;28;20414;-68
2023/10/23 10:57:53;;;;;;;1999.90;999.90;;;14.20;99.90;;;;;;5092180;28;20925;-67
2023/10/23 11:00:18;;;;;;;1999.90;999.90;;;14.20;99.90;;;;;;5092217;28;20236;-67
2023/10/23 11:02:44;;;;;;;1999.90;999.90;;;14.20;99.90;;;;;;5092354;28;20438;-67
2023/10/23 11:05:11;;;;;;;1999.90;999.90;;;14.20;99.90;;;;;;5092776;28;20181;-67
2023/10/23 11:07:37;;;;;;;1999.90;999.90;;;14.30;99.90;;;;;;5091876;28;20215;-67
2023/10/23 11:10:04;;;;;;;1999.90;999.90;;;14.40;99.90;;;;;;5091978;28;20527;-67
2023/10/23 11:12:30;;;;;;;1999.90;999.90;;;14.40;99.90;;;;;;5092516;28;20460;-67
2023/10/23 11:14:56;;;;;;;1999.90;999.90;;;14.40;99.90;;;;;;5091856;28;20410;-67
2023/10/23 11:17:23;;;;;;;1999.90;999.90;;;14.50;99.90;;;;;;5091911;28;20548;-67
2023/10/23 11:19:49;;;;;;;1999.90;999.90;;;14.50;99.90;;;;;;5092148;28;20194;-68
2023/10/23 11:22:17;;;;;;;1999.90;999.90;;;14.60;99.90;;;;;;5092098;28;20522;-67
2023/10/23 11:24:43;;;;;;;1999.90;999.90;;;14.70;99.90;;;;;;5092048;28;20782;-67
2023/10/23 11:27:09;;;;;;;1999.90;999.90;;;14.60;99.90;;;;;;5091821;28;20414;-67
2023/10/23 11:29:40;;;;;;;1999.90;999.90;;;14.60;99.90;;;;;;5091134;28;20417;-67
2023/10/23 11:32:07;;;;;;;1999.90;999.90;;;14.70;99.90;;;;;;5091993;28;20202;-67
2023/10/23 11:34:35;;;;;;;1999.90;999.90;;;14.70;99.90;;;;;;5092161;28;20400;-67
2023/10/23 11:37:01;;;;;;;1999.90;999.90;;;14.70;99.90;;;;;;5091405;28;20458;-67
2023/10/23 11:39:30;;;;;;;1999.90;999.90;;;14.70;99.90;;;;;;5091587;28;20416;-68
2023/10/23 11:41:57;;;;;;;1999.90;999.90;;;14.80;99.90;;;;;;5091534;28;20425;-67
2023/10/23 11:44:27;;;;;;;1999.90;999.90;;;14.80;99.90;;;;;;5091569;28;20397;-67
2023/10/23 11:46:57;;;;;;;1999.90;999.90;;;14.70;99.90;;;;;;5091613;28;20423;-66
2023/10/23 11:49:23;;;;;;;1999.90;999.90;;;14.70;99.90;;;;;;5091701;28;20404;-68
2023/10/23 11:51:52;;;;;;;1999.90;999.90;;;14.90;99.90;;;;;;5091150;28;20984;-67
2023/10/23 11:54:19;;;;;;;1999.90;999.90;;;14.70;99.90;;;;;;5091382;28;21000;-67
2023/10/23 11:56:45;;;;;;;1999.90;999.90;;;14.70;99.90;;;;;;5091407;28;20408;-68
2023/10/23 11:59:18;;;;;;;1999.90;999.90;;;14.70;99.90;;;;;;5091193;28;20411;-67